createdAt,value
2022-09-07T00:01:37.048Z,98548.88
2022-09-07T00:04:06.440Z,98546.69
2022-09-07T00:06:35.973Z,98554.00
2022-09-07T00:09:05.425Z,98554.47
2022-09-07T00:11:34.881Z,98551.69
2022-09-07T00:14:05.568Z,98548.47
2022-09-07T00:16:35.229Z,98541.25
2022-09-07T00:19:05.092Z,98544.00
2022-09-07T00:21:34.408Z,98537.59
2022-09-07T00:24:04.162Z,98542.06
2022-09-07T00:26:33.494Z,98532.44
2022-09-07T00:29:04.579Z,98531.28
2022-09-07T00:31:34.452Z,98529.56
2022-09-07T00:34:03.818Z,98530.59
2022-09-07T00:36:33.071Z,98529.88
2022-09-07T00:39:02.710Z,98535.16
2022-09-07T00:41:32.284Z,98536.75
2022-09-07T00:44:42.937Z,98542.22
2022-09-07T00:47:24.260Z,98546.53
2022-09-07T00:50:00.588Z,98543.78
2022-09-07T00:52:33.101Z,98547.91
2022-09-07T00:55:10.229Z,98547.97
2022-09-07T00:57:45.521Z,98543.97
2022-09-07T01:00:15.274Z,98541.78
2022-09-07T01:02:49.355Z,98540.75
2022-09-07T01:05:50.939Z,98529.06
2022-09-07T01:08:20.368Z,98525.09
2022-09-07T01:10:49.744Z,98531.00
2022-09-07T01:13:19.009Z,98538.53
2022-09-07T01:16:18.515Z,98529.97
2022-09-07T01:19:21.864Z,98529.84
2022-09-07T01:22:39.043Z,98524.00
2022-09-07T01:25:45.713Z,98529.47
2022-09-07T01:28:32.764Z,98520.19
2022-09-07T01:31:23.877Z,98523.03
2022-09-07T01:34:20.799Z,98526.13
2022-09-07T01:37:14.102Z,98530.19
2022-09-07T01:41:05.725Z,98529.88
2022-09-07T01:44:05.870Z,98527.44
2022-09-07T01:46:42.960Z,98515.97
2022-09-07T01:49:18.029Z,98521.22
2022-09-07T01:51:55.897Z,98515.38
2022-09-07T01:54:41.374Z,98510.34
2022-09-07T01:57:28.903Z,98517.00
2022-09-07T02:00:19.039Z,98509.66
2022-09-07T02:02:53.518Z,98507.56
2022-09-07T02:05:40.006Z,98510.22
2022-09-07T02:08:41.206Z,98497.28
2022-09-07T02:11:21.779Z,98504.16
2022-09-07T02:14:28.927Z,98498.44
2022-09-07T02:17:13.577Z,98505.28
2022-09-07T02:19:51.361Z,98508.84
2022-09-07T02:22:31.904Z,98494.56
2022-09-07T02:25:05.820Z,98496.78
2022-09-07T02:27:48.713Z,98493.09
2022-09-07T02:30:18.150Z,98499.75
2022-09-07T02:32:47.601Z,98497.56
2022-09-07T02:35:17.725Z,98514.13
2022-09-07T02:37:48.958Z,98507.50
2022-09-07T02:40:18.602Z,98508.09
2022-09-07T02:42:49.173Z,98502.41
2022-09-07T02:45:19.107Z,98503.13
2022-09-07T02:48:45.236Z,98498.13
2022-09-07T02:51:58.490Z,98491.06
2022-09-07T02:54:58.568Z,98480.63
2022-09-07T02:58:14.765Z,98491.00
2022-09-07T03:01:02.187Z,98499.81
2022-09-07T03:04:07.681Z,98492.84
2022-09-07T03:06:48.689Z,98490.50
2022-09-07T03:09:28.126Z,98494.56
2022-09-07T03:11:57.990Z,98486.91
2022-09-07T03:14:30.348Z,98487.78
2022-09-07T03:17:01.124Z,98488.22
2022-09-07T03:19:30.418Z,98477.41
2022-09-07T03:21:59.851Z,98498.94
2022-09-07T03:24:29.231Z,98493.69
2022-09-07T03:26:58.918Z,98492.31
2022-09-07T03:29:28.300Z,98492.97
2022-09-07T03:31:57.589Z,98502.31
2022-09-07T03:34:26.904Z,98492.03
2022-09-07T03:36:56.209Z,98496.59
2022-09-07T03:39:26.671Z,98499.31
2022-09-07T03:41:55.983Z,98497.09
2022-09-07T03:44:25.266Z,98500.19
2022-09-07T03:46:54.582Z,98499.81
2022-09-07T03:49:23.885Z,98497.19
2022-09-07T03:51:53.155Z,98494.19
2022-09-07T03:54:22.897Z,98502.28
2022-09-07T03:56:52.102Z,98503.94
2022-09-07T03:59:21.552Z,98497.94
2022-09-07T04:01:51.005Z,98502.47
2022-09-07T04:04:20.396Z,98504.50
2022-09-07T04:06:50.976Z,98495.88
2022-09-07T04:09:20.331Z,98500.75
2022-09-07T04:11:49.628Z,98503.75
2022-09-07T04:14:19.028Z,98505.34
2022-09-07T04:16:48.840Z,98505.34
2022-09-07T04:19:18.721Z,98501.13
2022-09-07T04:21:48.583Z,98499.31
2022-09-07T04:24:18.689Z,98498.88
2022-09-07T04:26:47.964Z,98493.16
2022-09-07T04:29:17.264Z,98495.50
2022-09-07T04:31:46.535Z,98503.50
2022-09-07T04:34:15.843Z,98499.88
2022-09-07T04:36:45.087Z,98504.25
2022-09-07T04:39:14.431Z,98509.00
2022-09-07T04:41:44.020Z,98507.34
2022-09-07T04:44:16.803Z,98509.09
2022-09-07T04:46:46.545Z,98499.91
2022-09-07T04:49:15.857Z,98508.53
2022-09-07T04:51:45.317Z,98503.97
2022-09-07T04:54:14.733Z,98501.72
2022-09-07T04:56:44.067Z,98504.50
2022-09-07T04:59:13.369Z,98496.78
2022-09-07T05:01:42.783Z,98509.38
2022-09-07T05:04:12.223Z,98494.56
2022-09-07T05:06:41.646Z,98497.13
2022-09-07T05:09:11.263Z,98490.53
2022-09-07T05:11:40.611Z,98492.03
2022-09-07T05:14:10.923Z,98493.75
2022-09-07T05:16:40.353Z,98494.34
2022-09-07T05:19:13.360Z,98500.31
2022-09-07T05:21:42.813Z,98502.88
2022-09-07T05:24:12.164Z,98503.22
2022-09-07T05:26:41.928Z,98507.13
2022-09-07T05:32:00.966Z,98508.00
2022-09-07T05:34:30.753Z,98508.09
2022-09-07T05:37:01.644Z,98509.31
2022-09-07T05:39:31.416Z,98517.53
2022-09-07T05:42:00.815Z,98509.66
2022-09-07T05:44:47.153Z,98513.75
2022-09-07T05:47:16.551Z,98518.31
2022-09-07T05:49:45.891Z,98518.97
2022-09-07T05:52:15.570Z,98519.34
2022-09-07T05:54:44.904Z,98525.16
2022-09-07T05:57:14.358Z,98519.66
2022-09-07T05:59:43.640Z,98528.00
2022-09-07T06:02:15.803Z,98531.41
2022-09-07T06:04:45.397Z,98529.91
2022-09-07T06:07:22.925Z,98528.94
2022-09-07T06:12:49.041Z,98525.38
2022-09-07T06:15:19.183Z,98522.59
2022-09-07T06:17:48.911Z,98531.78
2022-09-07T06:20:18.208Z,98525.94
2022-09-07T06:22:47.599Z,98524.59
2022-09-07T06:25:16.980Z,98526.59
2022-09-07T06:27:49.358Z,98518.72
2022-09-07T06:30:18.658Z,98516.13
2022-09-07T06:32:48.332Z,98510.75
2022-09-07T06:35:17.981Z,98519.16
2022-09-07T06:37:47.289Z,98506.03
2022-09-07T06:40:16.798Z,98510.59
2022-09-07T06:42:46.397Z,98506.41
2022-09-07T06:45:18.048Z,98504.19
2022-09-07T06:47:47.382Z,98504.81
2022-09-07T06:50:17.679Z,98505.16
2022-09-07T06:55:44.915Z,98499.59
2022-09-07T06:58:14.155Z,98498.59
2022-09-07T07:00:43.464Z,98493.69
2022-09-07T07:03:12.923Z,98499.59
2022-09-07T07:05:43.283Z,98489.09
2022-09-07T07:08:12.529Z,98492.47
2022-09-07T07:10:41.776Z,98487.16
2022-09-07T07:15:47.717Z,98487.09
2022-09-07T07:18:21.134Z,98479.84
2022-09-07T07:20:51.758Z,98477.41
2022-09-07T07:23:21.034Z,98478.06
2022-09-07T07:25:50.414Z,98473.38
2022-09-07T07:31:13.195Z,98479.44
2022-09-07T07:33:43.528Z,98480.50
2022-09-07T07:36:30.979Z,98473.41
2022-09-07T07:39:01.394Z,98473.22
2022-09-07T07:44:21.666Z,98471.81
2022-09-07T07:46:51.728Z,98479.59
2022-09-07T07:49:21.235Z,98477.25
2022-09-07T07:54:39.803Z,98478.69
2022-09-07T07:57:09.142Z,98477.41
2022-09-07T07:59:39.430Z,98478.81
2022-09-07T08:02:16.455Z,98465.59
2022-09-07T08:04:45.875Z,98477.06
2022-09-07T08:07:15.875Z,98480.06
2022-09-07T08:09:47.859Z,98472.38
2022-09-07T08:12:20.201Z,98467.63
2022-09-07T08:14:49.460Z,98453.81
2022-09-07T08:17:18.684Z,98457.53
2022-09-07T08:19:48.276Z,98448.75
2022-09-07T08:22:17.528Z,98450.41
2022-09-07T08:24:46.818Z,98456.47
2022-09-07T08:27:20.549Z,98456.47
2022-09-07T08:29:50.861Z,98454.88
2022-09-07T08:32:23.190Z,98460.44
2022-09-07T08:34:52.703Z,98450.56
2022-09-07T08:37:22.078Z,98448.38
2022-09-07T08:39:51.364Z,98447.06
2022-09-07T08:42:41.147Z,98450.47
2022-09-07T08:45:21.407Z,98449.94
2022-09-07T08:47:52.969Z,98448.34
2022-09-07T08:50:59.463Z,98444.13
2022-09-07T08:53:30.331Z,98447.31
2022-09-07T08:56:05.756Z,98436.69
2022-09-07T08:58:49.871Z,98436.13
2022-09-07T09:01:34.592Z,98433.72
2022-09-07T09:04:17.023Z,98432.88
2022-09-07T09:07:25.529Z,98438.16
2022-09-07T09:10:06.994Z,98429.59
2022-09-07T09:13:19.285Z,98423.97
2022-09-07T09:16:04.060Z,98432.22
2022-09-07T09:18:54.240Z,98424.72
2022-09-07T09:21:23.620Z,98421.19
2022-09-07T09:24:02.106Z,98425.41
2022-09-07T09:26:34.483Z,98412.09
2022-09-07T09:29:30.090Z,98416.31
2022-09-07T09:31:59.375Z,98416.56
2022-09-07T09:34:31.242Z,98406.09
2022-09-07T09:37:02.657Z,98404.44
2022-09-07T09:39:38.518Z,98406.19
2022-09-07T09:42:10.421Z,98402.44
2022-09-07T09:44:41.023Z,98408.31
2022-09-07T09:47:39.719Z,98399.25
2022-09-07T09:53:40.237Z,98390.56
2022-09-07T09:56:11.000Z,98394.22
2022-09-07T10:01:34.680Z,98387.72
2022-09-07T10:04:30.845Z,98396.50
2022-09-07T10:07:30.168Z,98382.94
2022-09-07T10:10:00.141Z,98387.34
2022-09-07T10:12:38.432Z,98385.69
2022-09-07T10:15:26.674Z,98383.19
2022-09-07T10:17:57.905Z,98385.47
2022-09-07T10:20:38.142Z,98376.03
2022-09-07T10:23:24.337Z,98382.41
2022-09-07T10:25:53.606Z,98375.41
2022-09-07T10:28:24.933Z,98366.47
2022-09-07T10:31:31.594Z,98366.63
2022-09-07T10:34:34.822Z,98367.41
2022-09-07T10:37:11.588Z,98363.94
2022-09-07T10:40:09.018Z,98351.09
2022-09-07T10:46:07.274Z,98346.13
2022-09-07T10:49:33.060Z,98346.66
2022-09-07T10:52:29.437Z,98346.09
2022-09-07T10:55:26.474Z,98340.16
2022-09-07T10:59:01.541Z,98340.59
2022-09-07T11:02:04.657Z,98329.53
2022-09-07T11:05:21.270Z,98327.56
2022-09-07T11:08:22.058Z,98327.69
2022-09-07T11:11:09.301Z,98328.91
2022-09-07T11:14:02.107Z,98323.47
2022-09-07T11:16:51.316Z,98324.72
2022-09-07T11:19:50.338Z,98317.63
2022-09-07T11:22:42.209Z,98324.53
2022-09-07T11:25:36.954Z,98316.03
2022-09-07T11:28:20.959Z,98323.06
2022-09-07T11:31:00.894Z,98319.72
2022-09-07T11:34:23.732Z,98311.63
2022-09-07T11:36:51.832Z,98303.31
2022-09-07T11:39:30.861Z,98302.94
2022-09-07T11:45:40.179Z,98299.00
2022-09-07T11:48:39.502Z,98285.16
2022-09-07T11:51:35.442Z,98283.78
2022-09-07T11:54:53.549Z,98281.19
2022-09-07T11:57:56.847Z,98283.97
2022-09-07T12:01:29.618Z,98276.53
2022-09-07T12:04:36.318Z,98275.44
2022-09-07T12:07:21.452Z,98284.75
2022-09-07T12:10:17.040Z,98279.63
2022-09-07T12:13:00.340Z,98282.19
2022-09-07T12:16:01.560Z,98272.66
2022-09-07T12:18:53.373Z,98263.16
2022-09-07T12:21:55.134Z,98255.34
2022-09-07T12:24:48.928Z,98261.13
2022-09-07T12:27:21.313Z,98257.81
2022-09-07T12:29:57.998Z,98253.38
2022-09-07T12:32:57.392Z,98244.91
2022-09-07T12:35:31.065Z,98248.00
2022-09-07T12:38:06.758Z,98232.09
2022-09-07T12:40:35.975Z,98244.75
2022-09-07T12:43:14.187Z,98235.91
2022-09-07T12:45:50.550Z,98243.66
2022-09-07T12:48:31.833Z,98244.75
2022-09-07T12:54:55.797Z,98228.47
2022-09-07T12:57:48.837Z,98232.22
2022-09-07T13:00:50.493Z,98241.59
2022-09-07T13:07:02.900Z,98223.31
2022-09-07T13:09:41.793Z,98204.84
2022-09-07T13:16:05.464Z,98197.53
2022-09-07T13:18:34.592Z,98193.19
2022-09-07T13:21:09.789Z,98214.94
2022-09-07T13:23:41.065Z,98205.97
2022-09-07T13:26:33.385Z,98201.63
2022-09-07T13:29:05.649Z,98193.63
2022-09-07T13:32:09.264Z,98191.84
2022-09-07T13:34:48.271Z,98185.00
2022-09-07T13:37:23.057Z,98186.53
2022-09-07T13:39:56.312Z,98171.91
2022-09-07T13:42:35.938Z,98177.59
2022-09-07T13:45:25.759Z,98167.34
2022-09-07T13:48:02.828Z,98171.03
2022-09-07T13:50:43.615Z,98168.56
2022-09-07T13:53:34.415Z,98188.53
2022-09-07T13:56:18.983Z,98199.84
2022-09-07T13:58:51.980Z,98192.81
2022-09-07T14:01:26.504Z,98196.59
2022-09-07T14:04:06.537Z,98189.38
2022-09-07T14:06:38.554Z,98195.97
2022-09-07T14:09:21.233Z,98204.59
2022-09-07T14:11:54.449Z,98193.06
2022-09-07T14:14:35.189Z,98186.53
2022-09-07T14:17:12.654Z,98188.59
2022-09-07T14:19:52.014Z,98189.88
2022-09-07T14:22:33.495Z,98192.75
2022-09-07T14:25:07.606Z,98192.72
2022-09-07T14:27:43.189Z,98191.50
2022-09-07T14:30:33.443Z,98193.66
2022-09-07T14:33:17.370Z,98194.91
2022-09-07T14:35:47.976Z,98187.25
2022-09-07T14:41:20.097Z,98188.47
2022-09-07T14:43:58.719Z,98200.44
2022-09-07T14:46:34.203Z,98199.03
2022-09-07T14:49:22.032Z,98192.38
2022-09-07T14:51:54.435Z,98194.25
2022-09-07T14:54:34.426Z,98184.59
2022-09-07T14:57:09.450Z,98200.03
2022-09-07T14:59:45.592Z,98193.84
2022-09-07T15:02:27.439Z,98193.53
2022-09-07T15:05:22.567Z,98191.28
2022-09-07T15:08:03.227Z,98192.81
2022-09-07T15:10:40.255Z,98191.84
2022-09-07T15:13:34.197Z,98191.06
2022-09-07T15:16:07.239Z,98190.09
2022-09-07T15:19:15.617Z,98182.50
2022-09-07T15:21:45.723Z,98184.69
2022-09-07T15:24:16.430Z,98182.75
2022-09-07T15:27:09.777Z,98176.72
2022-09-07T15:29:38.997Z,98179.66
2022-09-07T15:32:10.563Z,98181.00
2022-09-07T15:34:39.801Z,98187.69
2022-09-07T15:39:58.917Z,98179.28
2022-09-07T15:45:17.971Z,98187.81
2022-09-07T15:47:52.858Z,98186.41
2022-09-07T15:50:23.788Z,98178.88
2022-09-07T15:52:53.158Z,98183.44
2022-09-07T15:55:24.345Z,98177.28
2022-09-07T15:58:08.716Z,98175.72
2022-09-07T16:00:40.340Z,98177.09
2022-09-07T16:03:10.207Z,98183.66
2022-09-07T16:05:44.294Z,98190.22
2022-09-07T16:11:24.229Z,98180.84
2022-09-07T16:14:02.574Z,98174.53
2022-09-07T16:19:21.771Z,98168.75
2022-09-07T16:21:51.056Z,98176.94
2022-09-07T16:24:20.275Z,98174.47
2022-09-07T16:26:49.467Z,98183.16
2022-09-07T16:29:18.704Z,98184.13
2022-09-07T16:34:37.988Z,98185.41
2022-09-07T16:37:07.400Z,98188.47
2022-09-07T16:39:36.935Z,98181.41
2022-09-07T16:42:07.012Z,98186.63
2022-09-07T16:44:36.358Z,98185.78
2022-09-07T16:47:05.873Z,98189.22
2022-09-07T16:49:35.210Z,98180.63
2022-09-07T16:52:10.577Z,98190.97
2022-09-07T16:54:40.154Z,98188.28
2022-09-07T16:57:09.444Z,98191.44
2022-09-07T16:59:38.643Z,98191.91
2022-09-07T17:02:17.707Z,98196.38
2022-09-07T17:04:47.383Z,98203.97
2022-09-07T17:07:16.915Z,98198.78
2022-09-07T17:09:46.456Z,98190.97
2022-09-07T17:12:15.673Z,98191.06
2022-09-07T17:14:44.867Z,98195.47
2022-09-07T17:17:16.482Z,98197.94
2022-09-07T17:19:46.061Z,98203.13
2022-09-07T17:22:18.156Z,98201.34
2022-09-07T17:24:48.470Z,98209.06
2022-09-07T17:27:17.821Z,98209.91
2022-09-07T17:29:47.047Z,98212.38
2022-09-07T17:32:24.432Z,98215.84
2022-09-07T17:34:58.157Z,98202.81
2022-09-07T17:37:27.394Z,98209.75
2022-09-07T17:39:56.925Z,98209.56
2022-09-07T17:43:38.767Z,98221.00
2022-09-07T17:45:18.099Z,98222.88
2022-09-07T17:47:49.592Z,98226.41
2022-09-07T17:50:18.976Z,98226.97
2022-09-07T17:52:52.947Z,98224.63
2022-09-07T17:55:22.337Z,98239.78
2022-09-07T17:57:51.638Z,98230.25
2022-09-07T18:00:20.821Z,98228.66
2022-09-07T18:02:50.130Z,98227.34
2022-09-07T18:05:22.170Z,98224.97
2022-09-07T18:07:51.490Z,98221.28
2022-09-07T18:10:20.711Z,98222.84
2022-09-07T18:12:49.924Z,98230.84
2022-09-07T18:15:22.160Z,98230.28
2022-09-07T18:17:52.089Z,98228.16
2022-09-07T18:20:24.148Z,98238.78
2022-09-07T18:22:53.555Z,98229.19
2022-09-07T18:25:23.368Z,98248.31
2022-09-07T18:30:42.850Z,98244.31
2022-09-07T18:33:12.163Z,98252.25
2022-09-07T18:35:47.733Z,98248.81
2022-09-07T18:38:17.157Z,98254.09
2022-09-07T18:40:46.723Z,98255.66
2022-09-07T18:43:16.341Z,98258.28
2022-09-07T18:45:45.654Z,98263.06
2022-09-07T18:48:14.929Z,98265.19
2022-09-07T18:50:44.403Z,98270.44
2022-09-07T18:53:16.753Z,98267.53
2022-09-07T18:55:46.347Z,98271.22
2022-09-07T18:58:16.160Z,98274.63
2022-09-07T19:00:54.715Z,98274.59
2022-09-07T19:03:27.309Z,98282.50
2022-09-07T19:06:19.188Z,98283.03
2022-09-07T19:08:48.903Z,98284.91
2022-09-07T19:11:24.885Z,98280.91
2022-09-07T19:13:58.011Z,98271.34
2022-09-07T19:16:28.482Z,98280.09
2022-09-07T19:19:01.547Z,98279.78
2022-09-07T19:21:34.898Z,98279.28
2022-09-07T19:24:16.587Z,98286.16
2022-09-07T19:26:48.575Z,98279.78
2022-09-07T19:29:19.455Z,98285.59
2022-09-07T19:32:07.924Z,98274.94
2022-09-07T19:34:41.008Z,98283.16
2022-09-07T19:37:13.445Z,98289.75
2022-09-07T19:39:42.740Z,98281.50
2022-09-07T19:42:12.285Z,98282.81
2022-09-07T19:44:41.536Z,98274.31
2022-09-07T19:47:14.099Z,98274.03
2022-09-07T19:49:43.549Z,98278.53
2022-09-07T19:52:12.860Z,98279.34
2022-09-07T19:54:42.110Z,98279.84
2022-09-07T19:57:11.438Z,98274.28
2022-09-07T19:59:40.663Z,98276.06
2022-09-07T20:02:10.527Z,98275.28
2022-09-07T20:04:39.800Z,98271.81
2022-09-07T20:07:09.095Z,98271.81
2022-09-07T20:09:38.340Z,98278.91
2022-09-07T20:12:08.848Z,98268.25
2022-09-07T20:14:38.127Z,98261.13
2022-09-07T20:17:07.369Z,98262.41
2022-09-07T20:19:36.567Z,98278.00
2022-09-07T20:22:06.202Z,98274.00
2022-09-07T20:24:35.461Z,98272.41
2022-09-07T20:27:04.986Z,98279.03
2022-09-07T20:29:34.325Z,98275.53
2022-09-07T20:32:03.654Z,98273.34
2022-09-07T20:34:33.585Z,98277.81
2022-09-07T20:37:02.881Z,98272.44
2022-09-07T20:39:36.977Z,98285.38
2022-09-07T20:42:08.381Z,98290.91
2022-09-07T20:44:37.875Z,98286.13
2022-09-07T20:47:07.148Z,98279.19
2022-09-07T20:49:36.415Z,98275.75
2022-09-07T20:52:06.058Z,98282.31
2022-09-07T20:54:37.710Z,98282.03
2022-09-07T20:57:06.962Z,98279.88
2022-09-07T20:59:36.190Z,98286.22
2022-09-07T21:02:05.766Z,98288.06
2022-09-07T21:04:35.210Z,98277.72
2022-09-07T21:07:04.435Z,98280.34
2022-09-07T21:09:33.651Z,98280.03
2022-09-07T21:12:03.285Z,98277.66
2022-09-07T21:14:32.519Z,98274.47
2022-09-07T21:17:01.720Z,98278.13
2022-09-07T21:19:31.002Z,98281.03
2022-09-07T21:22:00.257Z,98274.38
2022-09-07T21:24:29.522Z,98274.13
2022-09-07T21:26:58.785Z,98279.19
2022-09-07T21:29:28.134Z,98275.47
2022-09-07T21:31:57.540Z,98282.31
2022-09-07T21:34:26.811Z,98289.72
2022-09-07T21:36:56.031Z,98294.91
2022-09-07T21:39:25.254Z,98297.56
2022-09-07T21:41:54.443Z,98291.19
2022-09-07T21:44:24.009Z,98287.41
2022-09-07T21:46:53.382Z,98282.88
2022-09-07T21:49:22.749Z,98293.91
2022-09-07T21:51:51.995Z,98295.75
2022-09-07T21:54:21.313Z,98287.28
2022-09-07T21:56:50.693Z,98286.75
2022-09-07T21:59:19.868Z,98276.19
2022-09-07T22:01:49.285Z,98277.22
2022-09-07T22:04:18.710Z,98275.00
2022-09-07T22:06:48.197Z,98287.09
2022-09-07T22:09:17.725Z,98282.31
2022-09-07T22:11:47.038Z,98274.31
2022-09-07T22:14:16.338Z,98275.88
2022-09-07T22:16:45.662Z,98275.06
2022-09-07T22:19:14.870Z,98266.03
2022-09-07T22:21:44.434Z,98255.19
2022-09-07T22:24:15.256Z,98258.84
2022-09-07T22:26:44.651Z,98266.22
2022-09-07T22:29:13.944Z,98255.56
2022-09-07T22:31:43.842Z,98264.47
2022-09-07T22:34:13.457Z,98262.88
2022-09-07T22:36:44.941Z,98259.44
2022-09-07T22:39:17.432Z,98266.06
2022-09-07T22:41:47.569Z,98263.66
2022-09-07T22:44:18.623Z,98259.19
2022-09-07T22:46:48.860Z,98263.63
2022-09-07T22:49:18.595Z,98267.28
2022-09-07T22:51:47.828Z,98265.38
2022-09-07T22:54:17.063Z,98267.94
2022-09-07T22:56:46.399Z,98274.19
2022-09-07T22:59:15.603Z,98280.50
2022-09-07T23:01:45.863Z,98268.53
2022-09-07T23:04:15.451Z,98274.66
2022-09-07T23:06:44.852Z,98275.53
2022-09-07T23:09:18.872Z,98264.03
2022-09-07T23:11:48.918Z,98269.59
2022-09-07T23:14:24.389Z,98272.00
2022-09-07T23:16:53.662Z,98277.59
2022-09-07T23:19:22.925Z,98270.25
2022-09-07T23:21:52.226Z,98263.66
2022-09-07T23:24:21.554Z,98259.19
2022-09-07T23:26:50.810Z,98256.31
2022-09-07T23:29:21.224Z,98251.03
2022-09-07T23:31:50.631Z,98239.91
2022-09-07T23:34:19.891Z,98252.31
2022-09-07T23:36:49.219Z,98250.25
2022-09-07T23:39:18.460Z,98246.50
2022-09-07T23:41:47.672Z,98246.75
2022-09-07T23:44:16.860Z,98249.06
2022-09-07T23:46:46.202Z,98247.41
2022-09-07T23:49:15.532Z,98254.75
2022-09-07T23:51:44.741Z,98248.34
2022-09-07T23:54:13.933Z,98241.50
2022-09-07T23:56:43.281Z,98239.56
2022-09-07T23:59:12.677Z,98236.06
